Home > Products > Valid Products > TAF

000
FTUS46 KHNX 251148 CCA
TAFFAT
TAF COR
KFAT 251148Z 2512/2612 VRB04KT P6SM BKN250
     FM251800 15010G15KT P6SM SCT050 BKN100 PROB30 2522/2602 -SHRA
      BKN050
     FM260200 31009KT P6SM BKN060=



000
FTUS46 KHNX 251141
TAFMCE
TAF
KMCE 251141Z 2512/2612 VRB05KT P6SM BKN250
     FM251700 15012G18KT P6SM SCT050 BKN100
      TEMPO 2520/2524 5SM -SHRA BKN050
     FM260000 31005KT P6SM SCT050=



000
FTUS46 KHNX 251141
TAFBFL
TAF
KBFL 251141Z 2512/2612 VRB04KT P6SM SCT250
     FM251800 31011KT P6SM BKN250=



000
FTUS46 KHNX 251141
TAFFAT
TAF
KFAT 251141Z 2512/2612 VRB04KT P6SM BKN250
     FM251800 15010G15KT P6SM SCT050 BKN120
     FM260100 31010KT P6SM SCT050=



000
FTUS46 KHNX 250520
TAFBFL
TAF
KBFL 250520Z 2506/2606 VRB04KT P6SM SKC
     FM251800 31011KT P6SM FEW250=



000
FTUS46 KHNX 250520
TAFFAT
TAF
KFAT 250520Z 2506/2606 VRB04KT P6SM SKC
     FM251800 17010G15KT P6SM FEW250
     FM252200 28010KT P6SM SCT250=



000
FTUS46 KHNX 250520
TAFMCE
TAF
KMCE 250520Z 2506/2606 24004KT P6SM SKC
     FM251500 13011KT P6SM SCT050 BKN100
     FM251800 15014G21KT P6SM BKN250
     FM252200 26010KT P6SM SCT250=



000
FTUS46 KHNX 242320
TAFBFL
TAF
KBFL 242320Z 2500/2524 VRB03KT P6SM SKC
     FM250300 04007KT P6SM SKC
     FM251700 30011KT P6SM SKC=



000
FTUS46 KHNX 242320
TAFFAT
TAF
KFAT 242320Z 2500/2524 14005KT P6SM SKC
     FM250100 30006KT P6SM SCT100
     FM251800 14010KT P6SM SCT250
     FM252200 22010KT P6SM SCT250=



000
FTUS46 KHNX 242320
TAFMCE
TAF
KMCE 242320Z 2500/2524 14006KT P6SM SKC
     FM251500 13011KT P6SM SCT050 BKN100
     FM251800 15014G21KT P6SM BKN250
     FM252200 22010KT P6SM SCT250=



000
FTUS46 KHNX 241720
TAFMCE
TAF
KMCE 241720Z 2418/2518 31006KT P6SM SKC
     FM251500 13008KT P6SM SCT050 BKN100=



000
FTUS46 KHNX 241720
TAFBFL
TAF
KBFL 241720Z 2418/2518 16004KT P6SM SKC
     FM241900 29007KT P6SM SKC
     FM250300 06005KT P6SM SKC=



000
FTUS46 KHNX 241720
TAFFAT
TAF
KFAT 241720Z 2418/2518 13006KT P6SM SKC
     FM250100 30006KT P6SM FEW100
     FM251200 13006KT P6SM FEW050 SCT100=



000
FTUS46 KHNX 241421 AAA
TAFMCE
TAF AMD
KMCE 241421Z 2414/2512 VRB03KT 2SM BR SKC
     FM241600 VRB04KT 5SM HZ SKC
     FM241900 15008KT P6SM SKC
     FM250200 27005KT P6SM FEW250=



000
FTUS46 KHNX 241421 AAA
TAFMCE
TAF AMD
KMCE 241421Z 2414/2512 VRB03KT 2SM BR SKC
     FM241600 VRB04KT 5SM HZ SKC
     FM241900 15008KT P6SM SKC
     FM250200 27005KT P6SM FEW250=



000
FTUS46 KHNX 241120
TAFMCE
TAF
KMCE 241120Z 2412/2512 VRB03KT P6SM SKC
     FM241900 15008KT P6SM SKC
     FM250200 27005KT P6SM FEW250=



000
FTUS46 KHNX 241120
TAFFAT
TAF
KFAT 241120Z 2412/2512 VRB04KT P6SM SKC=



000
FTUS46 KHNX 241120
TAFBFL
TAF
KBFL 241120Z 2412/2512 00000KT P6SM SKC
     FM242000 28010KT P6SM SKC
     FM250500 VRB05KT P6SM SKC=



000
FTUS46 KHNX 240532
TAFFAT
TAF
KFAT 240532Z 2406/2506 VRB03KT P6SM SKC
     FM241900 14008KT P6SM FEW250=



000
FTUS46 KHNX 240532
TAFMCE
TAF
KMCE 240532Z 2406/2506 VRB03KT P6SM SKC
     FM241800 14008KT P6SM SCT250
     FM250300 23009KT P6SM SCT250=



000
FTUS46 KHNX 240532
TAFBFL
TAF
KBFL 240532Z 2406/2506 03005KT P6SM SKC
     FM241200 12003KT P6SM SKC
     FM242000 21008KT P6SM FEW250=



000
FTUS46 KHNX 232323
TAFBFL
TAF
KBFL 232323Z 2400/2424 VRB04KT P6SM FEW250
     FM242000 21008KT P6SM FEW250=



000
FTUS46 KHNX 232323
TAFMCE
TAF
KMCE 232323Z 2400/2424 33005KT P6SM SCT250
     FM241800 14008KT P6SM SCT250=



000
FTUS46 KHNX 232323
TAFFAT
TAF
KFAT 232323Z 2400/2424 VRB04KT P6SM SCT250
     FM241900 14008KT P6SM FEW250=



000
FTUS46 KHNX 231727
TAFMCE
TAF
KMCE 231727Z 2318/2418 33005KT P6SM SCT250=



000
FTUS46 KHNX 231727
TAFFAT
TAF
KFAT 231727Z 2318/2418 VRB04KT P6SM SCT250=



000
FTUS46 KHNX 231727
TAFBFL
TAF
KBFL 231727Z 2318/2418 VRB04KT P6SM FEW250=



000
FTUS46 KHNX 231125
TAFBFL
TAF
KBFL 231125Z 2312/2412 33006KT P6SM FEW250=



000
FTUS46 KHNX 231125
TAFMCE
TAF
KMCE 231125Z 2312/2412 33006KT P6SM BKN250=



000
FTUS46 KHNX 231125
TAFFAT
TAF
KFAT 231125Z 2312/2412 30005KT P6SM SCT250=



000
FTUS46 KHNX 230525
TAFBFL
TAF
KBFL 230525Z 2306/2406 VRB04KT P6SM SCT250=



000
FTUS46 KHNX 230525
TAFFAT
TAF
KFAT 230525Z 2306/2406 VRB04KT P6SM SCT250=



000
FTUS46 KHNX 230525
TAFMCE
TAF
KMCE 230525Z 2306/2406 33005KT P6SM SCT250=



000
FTUS46 KHNX 222320
TAFMCE
TAF
KMCE 222320Z 2300/2324 VRB04KT P6SM SCT250=



000
FTUS46 KHNX 222320
TAFFAT
TAF
KFAT 222320Z 2300/2324 VRB03KT P6SM SCT250=



000
FTUS46 KHNX 222320
TAFBFL
TAF
KBFL 222320Z 2300/2324 VRB04KT P6SM SKC=



000
FTUS46 KHNX 221720
TAFMCE
TAF
KMCE 221720Z 2218/2318 VRB04KT P6SM SCT250=



000
FTUS46 KHNX 221720
TAFFAT
TAF
KFAT 221720Z 2218/2318 VRB03KT P6SM SCT250=



000
FTUS46 KHNX 221720
TAFFAT
TAF
KFAT 221720Z 2218/2318 VRB03KT P6SM SCT250=



000
FTUS46 KHNX 221720
TAFMCE
TAF
KMCE 221720Z 2218/2318 VRB04KT P6SM SCT250=



000
FTUS46 KHNX 221720
TAFBFL
TAF
KBFL 221720Z 2218/2318 VRB04KT P6SM SCT250=



000
FTUS46 KHNX 221720
TAFBFL
TAF
KBFL 221720Z 2218/2318 VRB04KT P6SM SCT250=



    US Dept of Commerce
    National Oceanic and Atmospheric Administration
    National Weather Service
    1325 East West Highway
    Silver Spring, MD 20910
    Page Author: NWS Internet Services Team
Disclaimer
Information Quality
Credits
Glossary
Privacy Policy
Freedom of Information Act (FOIA)
About Us
Career Opportunities